createdAt,value
2018-09-11T00:02:11.634Z,22.43
2018-09-11T00:04:40.267Z,19.17
2018-09-11T00:07:08.806Z,9.50
2018-09-11T00:09:37.463Z,9.13
2018-09-11T00:12:06.009Z,6.67
2018-09-11T00:14:34.676Z,15.80
2018-09-11T00:17:03.284Z,19.00
2018-09-11T00:19:31.786Z,14.47
2018-09-11T00:22:00.902Z,14.83
2018-09-11T00:24:29.332Z,9.37
2018-09-11T00:26:57.780Z,15.03
2018-09-11T00:29:26.504Z,14.37
2018-09-11T00:31:55.089Z,22.57
2018-09-11T00:34:23.549Z,15.67
2018-09-11T00:36:52.136Z,15.40
2018-09-11T00:39:20.594Z,10.13
2018-09-11T00:41:49.051Z,20.30
2018-09-11T00:44:17.484Z,9.87
2018-09-11T00:46:46.097Z,11.40
2018-09-11T00:49:14.498Z,12.57
2018-09-11T00:51:43.140Z,8.53
2018-09-11T00:54:11.600Z,13.70
2018-09-11T00:56:39.999Z,7.63
2018-09-11T00:59:08.383Z,7.87
2018-09-11T01:01:36.851Z,7.23
2018-09-11T01:04:05.393Z,6.27
2018-09-11T01:06:33.870Z,6.50
2018-09-11T01:09:02.320Z,5.43
2018-09-11T01:11:30.769Z,5.50
2018-09-11T01:13:59.330Z,5.30
2018-09-11T01:16:27.847Z,9.03
2018-09-11T01:18:56.375Z,9.60
2018-09-11T01:21:24.915Z,7.63
2018-09-11T01:23:53.459Z,9.97
2018-09-11T01:26:21.914Z,9.13
2018-09-11T01:28:50.435Z,7.80
2018-09-11T01:31:18.891Z,6.77
2018-09-11T01:33:47.353Z,9.73
2018-09-11T01:36:15.817Z,6.03
2018-09-11T01:38:44.211Z,7.63
2018-09-11T01:41:12.803Z,13.63
2018-09-11T01:43:41.147Z,6.80
2018-09-11T01:46:09.678Z,12.23
2018-09-11T01:48:38.159Z,12.97
2018-09-11T01:51:06.846Z,9.50
2018-09-11T01:53:35.221Z,6.63
2018-09-11T01:56:03.810Z,8.10
2018-09-11T01:58:32.231Z,7.43
2018-09-11T02:01:00.656Z,6.77
2018-09-11T02:03:29.128Z,9.83
2018-09-11T02:05:57.539Z,6.77
2018-09-11T02:08:26.009Z,6.70
2018-09-11T02:10:54.475Z,7.20
2018-09-11T02:13:22.891Z,7.83
2018-09-11T02:15:51.351Z,8.20
2018-09-11T02:18:19.762Z,9.57
2018-09-11T02:20:48.224Z,6.47
2018-09-11T02:23:16.686Z,13.47
2018-09-11T02:25:45.116Z,7.90
2018-09-11T02:28:13.568Z,11.40
2018-09-11T02:30:41.962Z,6.80
2018-09-11T02:33:10.346Z,5.80
2018-09-11T02:35:38.726Z,6.20
2018-09-11T02:38:07.158Z,5.83
2018-09-11T02:40:35.539Z,6.60
2018-09-11T02:43:03.963Z,8.23
2018-09-11T02:45:32.406Z,6.13
2018-09-11T02:48:00.752Z,5.53
2018-09-11T02:50:29.140Z,9.80
2018-09-11T02:52:57.571Z,7.57
2018-09-11T02:55:26.112Z,7.53
2018-09-11T02:57:54.583Z,6.67
2018-09-11T03:00:23.004Z,6.40
2018-09-11T03:02:51.485Z,7.07
2018-09-11T03:05:19.892Z,7.13
2018-09-11T03:07:48.274Z,7.90
2018-09-11T03:10:16.710Z,6.97
2018-09-11T03:12:45.083Z,6.90
2018-09-11T03:15:13.511Z,11.00
2018-09-11T03:17:41.977Z,7.87
2018-09-11T03:20:10.387Z,6.80
2018-09-11T03:22:38.729Z,6.20
2018-09-11T03:25:07.163Z,12.07
2018-09-11T03:27:35.658Z,7.27
2018-09-11T03:30:04.334Z,8.43
2018-09-11T03:32:32.726Z,8.80
2018-09-11T03:35:01.275Z,9.07
2018-09-11T03:37:29.843Z,5.30
2018-09-11T03:39:58.314Z,7.57
2018-09-11T03:42:27.510Z,7.33
2018-09-11T03:44:55.926Z,6.80
2018-09-11T03:47:24.359Z,7.10
2018-09-11T03:49:52.783Z,6.33
2018-09-11T03:52:21.177Z,5.37
2018-09-11T03:54:49.647Z,7.20
2018-09-11T03:57:18.150Z,8.07
2018-09-11T03:59:46.522Z,7.07
2018-09-11T04:02:15.025Z,6.03
2018-09-11T04:04:43.483Z,6.80
2018-09-11T04:07:11.894Z,8.30
2018-09-11T04:09:40.396Z,6.37
2018-09-11T04:12:08.814Z,9.53
2018-09-11T04:14:37.242Z,7.70
2018-09-11T04:17:05.703Z,7.63
2018-09-11T04:19:34.035Z,6.23
2018-09-11T04:22:02.624Z,7.70
2018-09-11T04:24:31.017Z,7.17
2018-09-11T04:26:59.427Z,6.40
2018-09-11T04:29:27.837Z,6.50
2018-09-11T04:31:56.270Z,8.70
2018-09-11T04:34:24.735Z,6.70
2018-09-11T04:36:53.162Z,7.87
2018-09-11T04:39:21.579Z,7.83
2018-09-11T04:41:50.006Z,7.13
2018-09-11T04:44:18.561Z,7.00
2018-09-11T04:46:47.047Z,8.77
2018-09-11T04:49:15.478Z,7.87
2018-09-11T04:51:43.838Z,9.20
2018-09-11T04:54:12.195Z,12.77
2018-09-11T04:56:40.650Z,9.27
2018-09-11T04:59:09.007Z,7.23
2018-09-11T05:01:37.498Z,6.57
2018-09-11T05:04:05.932Z,8.00
2018-09-11T05:06:34.277Z,8.17
2018-09-11T05:09:02.688Z,6.40
2018-09-11T05:11:31.156Z,6.50
2018-09-11T05:13:59.551Z,5.57
2018-09-11T05:16:27.965Z,7.20
2018-09-11T05:18:56.359Z,7.47
2018-09-11T05:21:24.747Z,7.37
2018-09-11T05:23:53.162Z,7.37
2018-09-11T05:26:21.638Z,6.10
2018-09-11T05:28:49.979Z,7.50
2018-09-11T05:31:18.454Z,7.50
2018-09-11T05:33:46.801Z,10.47
2018-09-11T05:36:15.113Z,7.57
2018-09-11T05:38:43.507Z,6.03
2018-09-11T05:41:11.906Z,8.07
2018-09-11T05:43:40.305Z,8.43
2018-09-11T05:46:08.651Z,7.53
2018-09-11T05:48:37.010Z,7.80
2018-09-11T05:51:05.619Z,7.17
2018-09-11T05:53:34.093Z,7.17
2018-09-11T05:56:02.457Z,7.43
2018-09-11T05:58:31.829Z,9.53
2018-09-11T06:01:00.170Z,10.03
2018-09-11T06:03:28.630Z,8.87
2018-09-11T06:05:57.082Z,8.03
2018-09-11T06:08:25.568Z,10.20
2018-09-11T06:10:54.020Z,9.30
2018-09-11T06:13:22.443Z,8.03
2018-09-11T06:15:50.793Z,7.93
2018-09-11T06:18:19.212Z,8.40
2018-09-11T06:20:47.650Z,6.93
2018-09-11T06:23:16.046Z,6.83
2018-09-11T06:25:44.490Z,9.43
2018-09-11T06:28:12.917Z,7.43
2018-09-11T06:30:41.402Z,10.07
2018-09-11T06:33:09.887Z,7.67
2018-09-11T06:35:38.256Z,6.97
2018-09-11T06:38:06.786Z,11.03
2018-09-11T06:40:35.175Z,6.67
2018-09-11T06:43:03.629Z,10.53
2018-09-11T06:45:32.188Z,9.27
2018-09-11T06:48:00.586Z,6.57
2018-09-11T06:50:29.122Z,7.00
2018-09-11T06:52:57.544Z,6.30
2018-09-11T06:55:26.529Z,8.23
2018-09-11T06:57:54.906Z,8.20
2018-09-11T07:00:23.382Z,10.53
2018-09-11T07:02:52.110Z,7.23
2018-09-11T07:05:20.548Z,8.60
2018-09-11T07:07:48.996Z,7.87
2018-09-11T07:10:17.370Z,7.23
2018-09-11T07:12:45.786Z,8.03
2018-09-11T07:15:14.230Z,7.20
2018-09-11T07:17:42.579Z,10.03
2018-09-11T07:20:11.168Z,6.57
2018-09-11T07:22:39.275Z,10.07
2018-09-11T07:25:07.862Z,6.83
2018-09-11T07:27:36.359Z,10.77
2018-09-11T07:30:04.865Z,8.23
2018-09-11T07:32:33.410Z,11.23
2018-09-11T07:35:01.839Z,8.83
2018-09-11T07:37:30.399Z,7.97
2018-09-11T07:40:00.023Z,6.37
2018-09-11T07:42:28.529Z,8.07
2018-09-11T07:44:57.039Z,8.63
2018-09-11T07:47:26.128Z,7.17
2018-09-11T07:49:54.955Z,7.63
2018-09-11T07:52:23.371Z,7.30
2018-09-11T07:54:51.737Z,7.13
2018-09-11T07:57:20.205Z,7.63
2018-09-11T07:59:49.720Z,7.83
2018-09-11T08:02:18.160Z,11.17
2018-09-11T08:04:46.514Z,8.30
2018-09-11T08:07:15.856Z,6.27
2018-09-11T08:09:44.235Z,9.60
2018-09-11T08:12:12.609Z,7.60
2018-09-11T08:14:40.921Z,7.53
2018-09-11T08:17:09.291Z,9.40
2018-09-11T08:19:37.995Z,7.03
2018-09-11T08:22:06.571Z,6.63
2018-09-11T08:24:34.940Z,7.87
2018-09-11T08:27:03.386Z,7.27
2018-09-11T08:29:31.837Z,4.53
2018-09-11T08:32:00.290Z,8.13
2018-09-11T08:34:28.825Z,4.97
2018-09-11T08:36:57.098Z,5.90
2018-09-11T08:39:25.630Z,4.83
2018-09-11T08:41:53.958Z,4.17
2018-09-11T08:44:22.314Z,5.07
2018-09-11T08:46:50.863Z,4.57
2018-09-11T08:49:19.323Z,6.10
2018-09-11T08:51:47.600Z,5.40
2018-09-11T08:54:15.907Z,4.10
2018-09-11T08:56:44.266Z,7.43
2018-09-11T08:59:12.739Z,5.13
2018-09-11T09:01:41.066Z,5.40
2018-09-11T09:04:09.435Z,4.93
2018-09-11T09:06:37.822Z,5.17
2018-09-11T09:09:08.901Z,4.40
2018-09-11T09:11:37.729Z,4.47
2018-09-11T09:14:06.282Z,4.73
2018-09-11T09:16:34.664Z,4.57
2018-09-11T09:19:03.110Z,5.33
2018-09-11T09:21:31.780Z,5.37
2018-09-11T09:24:00.279Z,3.10
2018-09-11T09:26:28.843Z,4.63
2018-09-11T09:28:57.204Z,4.23
2018-09-11T09:31:25.874Z,3.07
2018-09-11T09:33:54.387Z,3.13
2018-09-11T09:36:22.874Z,3.17
2018-09-11T09:38:52.342Z,5.53
2018-09-11T09:41:20.758Z,4.37
2018-09-11T09:43:49.985Z,4.03
2018-09-11T09:46:18.366Z,3.93
2018-09-11T09:48:46.711Z,6.10
2018-09-11T09:51:15.199Z,3.53
2018-09-11T09:53:43.595Z,3.33
2018-09-11T09:56:12.168Z,2.57
2018-09-11T09:58:40.543Z,5.30
2018-09-11T10:01:15.087Z,5.67
2018-09-11T10:03:43.533Z,3.20
2018-09-11T10:06:11.922Z,3.37
2018-09-11T10:08:40.308Z,3.00
2018-09-11T10:11:08.732Z,3.43
2018-09-11T10:13:37.116Z,4.80
2018-09-11T10:16:05.467Z,4.47
2018-09-11T10:18:33.968Z,4.77
2018-09-11T10:21:02.366Z,4.50
2018-09-11T10:23:30.848Z,3.63
2018-09-11T10:25:59.246Z,4.17
2018-09-11T10:28:27.659Z,3.80
2018-09-11T10:30:56.006Z,5.53
2018-09-11T10:33:24.534Z,3.07
2018-09-11T10:35:53.042Z,3.23
2018-09-11T10:38:21.518Z,4.00
2018-09-11T10:40:49.960Z,2.63
2018-09-11T10:43:18.448Z,3.77
2018-09-11T10:45:46.924Z,3.77
2018-09-11T10:48:15.337Z,4.60
2018-09-11T10:50:43.787Z,4.97
2018-09-11T10:53:12.134Z,2.60
2018-09-11T10:55:40.508Z,2.87
2018-09-11T10:58:08.887Z,5.50
2018-09-11T11:00:37.390Z,3.50
2018-09-11T11:03:05.907Z,2.70
2018-09-11T11:05:34.376Z,4.03
2018-09-11T11:08:02.762Z,4.60
2018-09-11T11:10:31.246Z,4.73
2018-09-11T11:12:59.696Z,4.70
2018-09-11T11:15:28.150Z,3.10
2018-09-11T11:17:56.582Z,4.47
2018-09-11T11:20:24.963Z,3.37
2018-09-11T11:22:53.471Z,4.53
2018-09-11T11:25:21.842Z,3.47
2018-09-11T11:27:50.246Z,4.13
2018-09-11T11:30:18.670Z,4.23
2018-09-11T11:32:47.070Z,3.13
2018-09-11T11:35:15.467Z,3.30
2018-09-11T11:37:43.831Z,3.57
2018-09-11T11:40:12.236Z,2.47
2018-09-11T11:42:40.688Z,2.67
2018-09-11T11:45:09.366Z,4.33
2018-09-11T11:47:37.759Z,4.10
2018-09-11T11:50:07.005Z,5.90
2018-09-11T11:52:35.389Z,4.13
2018-09-11T11:55:03.904Z,4.50
2018-09-11T11:57:32.038Z,3.13
2018-09-11T12:00:00.436Z,3.57
2018-09-11T12:02:28.992Z,3.70
2018-09-11T12:04:57.391Z,4.80
2018-09-11T12:07:25.856Z,3.87
2018-09-11T12:09:54.198Z,2.57
2018-09-11T12:12:22.539Z,3.93
2018-09-11T12:14:50.890Z,5.10
2018-09-11T12:17:19.292Z,3.87
2018-09-11T12:19:47.783Z,3.47
2018-09-11T12:22:16.172Z,2.63
2018-09-11T12:24:44.569Z,4.67
2018-09-11T12:27:13.023Z,2.87
2018-09-11T12:29:41.429Z,3.33
2018-09-11T12:32:09.785Z,4.80
2018-09-11T12:34:38.216Z,4.13
2018-09-11T12:37:06.670Z,3.90
2018-09-11T12:39:35.130Z,3.47
2018-09-11T12:42:04.423Z,4.93
2018-09-11T12:44:32.815Z,4.90
2018-09-11T12:47:01.340Z,4.53
2018-09-11T12:49:29.613Z,4.57
2018-09-11T12:51:57.972Z,4.67
2018-09-11T12:54:26.346Z,3.10
2018-09-11T12:56:54.817Z,2.87
2018-09-11T12:59:23.303Z,4.93
2018-09-11T13:01:51.842Z,4.53
2018-09-11T13:04:20.218Z,3.43
2018-09-11T13:06:48.644Z,3.33
2018-09-11T13:09:17.097Z,3.77
2018-09-11T13:11:45.371Z,3.73
2018-09-11T13:14:13.990Z,5.93
2018-09-11T13:16:42.386Z,2.63
2018-09-11T13:19:10.832Z,4.57
2018-09-11T13:21:39.292Z,3.30
2018-09-11T13:24:07.679Z,3.83
2018-09-11T13:26:36.029Z,7.27
2018-09-11T13:29:04.540Z,5.00
2018-09-11T13:31:32.927Z,5.83
2018-09-11T13:34:01.256Z,3.67
2018-09-11T13:36:29.702Z,5.83
2018-09-11T13:38:58.204Z,2.47
2018-09-11T13:41:26.677Z,6.60
2018-09-11T13:43:55.150Z,3.47
2018-09-11T13:46:23.547Z,4.57
2018-09-11T13:48:51.994Z,5.30
2018-09-11T13:51:20.388Z,4.00
2018-09-11T13:53:48.846Z,5.07
2018-09-11T13:56:17.222Z,3.83
2018-09-11T13:58:45.630Z,3.47
2018-09-11T14:01:14.107Z,5.80
2018-09-11T14:03:42.601Z,5.30
2018-09-11T14:06:10.978Z,3.57
2018-09-11T14:08:39.564Z,4.20
2018-09-11T14:11:08.145Z,3.83
2018-09-11T14:13:36.543Z,3.13
2018-09-11T14:16:04.997Z,3.67
2018-09-11T14:18:33.442Z,3.87
2018-09-11T14:21:01.899Z,3.23
2018-09-11T14:23:30.327Z,3.00
2018-09-11T14:25:58.777Z,5.60
2018-09-11T14:28:27.186Z,4.77
2018-09-11T14:30:55.688Z,5.47
2018-09-11T14:33:24.150Z,5.37
2018-09-11T14:35:52.739Z,5.00
2018-09-11T14:38:21.235Z,5.87
2018-09-11T14:40:49.718Z,5.10
2018-09-11T14:43:18.126Z,5.20
2018-09-11T14:45:46.564Z,4.83
2018-09-11T14:48:15.062Z,5.50
2018-09-11T14:50:43.419Z,3.60
2018-09-11T14:53:11.905Z,2.73
2018-09-11T14:55:40.279Z,6.87
2018-09-11T14:58:08.666Z,2.93
2018-09-11T15:00:37.134Z,4.57
2018-09-11T15:03:05.627Z,5.23
2018-09-11T15:05:34.031Z,6.63
2018-09-11T15:08:02.543Z,4.73
2018-09-11T15:10:30.895Z,3.33
2018-09-11T15:12:59.279Z,5.60
2018-09-11T15:15:27.698Z,4.93
2018-09-11T15:17:56.126Z,3.20
2018-09-11T15:20:24.559Z,4.30
2018-09-11T15:22:53.066Z,4.67
2018-09-11T15:25:21.519Z,4.47
2018-09-11T15:27:49.976Z,5.63
2018-09-11T15:30:18.369Z,5.07
2018-09-11T15:32:46.812Z,4.77
2018-09-11T15:35:15.122Z,3.40
2018-09-11T15:37:43.551Z,2.73
2018-09-11T15:40:11.913Z,4.33
2018-09-11T15:42:40.299Z,3.93
2018-09-11T15:45:08.712Z,5.23
2018-09-11T15:47:37.114Z,4.27
2018-09-11T15:50:05.497Z,3.83
2018-09-11T15:52:33.934Z,6.77
2018-09-11T15:55:02.321Z,5.53
2018-09-11T15:57:30.648Z,6.00
2018-09-11T15:59:59.078Z,3.70
2018-09-11T16:02:27.423Z,4.90
2018-09-11T16:04:55.728Z,3.87
2018-09-11T16:07:24.142Z,4.47
2018-09-11T16:09:52.523Z,5.73
2018-09-11T16:12:20.880Z,3.77
2018-09-11T16:14:49.278Z,3.43
2018-09-11T16:17:17.723Z,5.67
2018-09-11T16:19:46.132Z,3.13
2018-09-11T16:22:14.624Z,3.57
2018-09-11T16:24:42.905Z,3.53
2018-09-11T16:27:11.345Z,4.50
2018-09-11T16:29:39.750Z,4.53
2018-09-11T16:32:08.034Z,5.77
2018-09-11T16:34:36.398Z,4.70
2018-09-11T16:37:04.979Z,6.23
2018-09-11T16:39:33.367Z,6.23
2018-09-11T16:42:01.725Z,5.37
2018-09-11T16:44:30.138Z,7.93
2018-09-11T16:46:58.547Z,7.13
2018-09-11T16:49:26.931Z,5.40
2018-09-11T16:51:55.351Z,4.63
2018-09-11T16:54:23.715Z,3.30
2018-09-11T16:56:52.046Z,4.30
2018-09-11T16:59:20.492Z,6.07
2018-09-11T17:01:48.870Z,4.10
2018-09-11T17:04:17.207Z,4.00
2018-09-11T17:06:45.597Z,4.53
2018-09-11T17:09:14.027Z,5.63
2018-09-11T17:11:42.447Z,3.67
2018-09-11T17:14:10.907Z,4.87
2018-09-11T17:16:39.242Z,4.33
2018-09-11T17:19:08.038Z,5.40
2018-09-11T17:21:37.420Z,7.43
2018-09-11T17:24:05.881Z,4.77
2018-09-11T17:26:34.318Z,5.17
2018-09-11T17:29:02.776Z,5.03
2018-09-11T17:31:31.102Z,3.43
2018-09-11T17:33:59.434Z,8.13
2018-09-11T17:36:27.859Z,6.80
2018-09-11T17:38:56.219Z,6.33
2018-09-11T17:41:24.605Z,5.43
2018-09-11T17:43:53.055Z,6.33
2018-09-11T17:46:21.662Z,6.13
2018-09-11T17:48:50.130Z,5.50
2018-09-11T17:51:18.527Z,8.17
2018-09-11T17:53:46.971Z,12.50
2018-09-11T17:56:15.427Z,17.40
2018-09-11T17:58:43.943Z,10.23
2018-09-11T18:01:14.479Z,8.23
2018-09-11T18:03:42.929Z,13.23
2018-09-11T18:06:11.376Z,13.20
2018-09-11T18:08:39.826Z,13.37
2018-09-11T18:11:08.268Z,20.03
2018-09-11T18:13:36.817Z,17.47
2018-09-11T18:16:05.309Z,11.63
2018-09-11T18:18:33.695Z,11.43
2018-09-11T18:21:02.125Z,7.50
2018-09-11T18:23:30.751Z,7.90
2018-09-11T18:25:59.261Z,11.57
2018-09-11T18:28:28.180Z,10.00
2018-09-11T18:30:56.921Z,28.97
2018-09-11T18:33:30.552Z,38.00
2018-09-11T18:35:58.884Z,7.23
2018-09-11T18:38:27.267Z,12.43
2018-09-11T18:40:55.646Z,12.17
2018-09-11T18:43:24.090Z,11.77
2018-09-11T18:45:52.566Z,9.90
2018-09-11T18:48:20.945Z,10.90
2018-09-11T18:50:49.441Z,6.57
2018-09-11T18:53:17.894Z,7.10
2018-09-11T18:55:46.291Z,9.07
2018-09-11T18:58:14.798Z,9.57
2018-09-11T19:00:43.287Z,8.23
2018-09-11T19:03:11.728Z,8.90
2018-09-11T19:05:40.075Z,8.63
2018-09-11T19:08:08.519Z,9.00
2018-09-11T19:10:36.942Z,9.83
2018-09-11T19:13:05.395Z,9.43
2018-09-11T19:15:33.855Z,9.03
2018-09-11T19:18:02.861Z,10.53
2018-09-11T19:20:31.239Z,11.93
2018-09-11T19:22:59.674Z,10.00
2018-09-11T19:25:28.148Z,12.70
2018-09-11T19:27:56.731Z,12.23
2018-09-11T19:30:25.177Z,13.30
2018-09-11T19:32:53.592Z,9.23
2018-09-11T19:35:22.025Z,8.87
2018-09-11T19:37:50.467Z,7.97
2018-09-11T19:40:18.846Z,7.53
2018-09-11T19:42:47.265Z,7.13
2018-09-11T19:45:15.809Z,9.87
2018-09-11T19:47:45.302Z,8.47
2018-09-11T19:50:13.822Z,9.37
2018-09-11T19:52:42.119Z,9.60
2018-09-11T19:55:10.489Z,9.50
2018-09-11T19:57:39.099Z,6.97
2018-09-11T20:00:07.742Z,5.87
2018-09-11T20:02:36.142Z,6.60
2018-09-11T20:05:04.700Z,6.67
2018-09-11T20:07:32.991Z,7.03
2018-09-11T20:10:01.506Z,10.57
2018-09-11T20:12:29.978Z,9.07
2018-09-11T20:14:58.383Z,5.93
2018-09-11T20:17:26.755Z,6.83
2018-09-11T20:19:55.292Z,5.97
2018-09-11T20:22:23.782Z,7.77
2018-09-11T20:24:52.360Z,7.20
2018-09-11T20:27:20.862Z,5.70
2018-09-11T20:29:49.275Z,7.33
2018-09-11T20:32:17.769Z,5.80
2018-09-11T20:34:46.314Z,9.30
2018-09-11T20:37:14.830Z,8.27
2018-09-11T20:39:43.405Z,8.73
2018-09-11T20:42:12.993Z,7.60
2018-09-11T20:44:41.558Z,6.20
2018-09-11T20:47:11.071Z,8.00
2018-09-11T20:49:39.556Z,12.07
2018-09-11T20:52:08.123Z,5.77
2018-09-11T20:54:36.670Z,9.33
2018-09-11T20:57:07.315Z,4.53
2018-09-11T20:59:35.756Z,6.20
2018-09-11T21:02:04.219Z,7.10
2018-09-11T21:04:32.665Z,8.00
2018-09-11T21:07:01.173Z,6.47
2018-09-11T21:09:29.696Z,6.43
2018-09-11T21:11:58.102Z,6.97
2018-09-11T21:14:26.532Z,7.07
2018-09-11T21:16:54.990Z,7.17
2018-09-11T21:19:23.356Z,5.57
2018-09-11T21:21:51.918Z,6.77
2018-09-11T21:24:20.367Z,9.07
2018-09-11T21:26:48.888Z,8.07
2018-09-11T21:29:17.299Z,6.77
2018-09-11T21:31:45.795Z,11.80
2018-09-11T21:34:14.207Z,7.07
2018-09-11T21:36:42.623Z,5.57
2018-09-11T21:39:12.215Z,6.67
2018-09-11T21:41:40.666Z,7.37
2018-09-11T21:44:09.119Z,7.20
2018-09-11T21:46:37.455Z,4.40
2018-09-11T21:49:06.005Z,6.60
2018-09-11T21:51:34.522Z,7.67
2018-09-11T21:54:03.059Z,5.93
2018-09-11T21:56:31.516Z,7.57
2018-09-11T21:58:59.908Z,8.13
2018-09-11T22:01:33.577Z,4.57
2018-09-11T22:04:02.866Z,6.00
2018-09-11T22:06:34.312Z,6.40
2018-09-11T22:09:02.742Z,8.57
2018-09-11T22:11:31.218Z,6.93
2018-09-11T22:13:59.620Z,6.23
2018-09-11T22:16:28.974Z,4.60
2018-09-11T22:18:57.438Z,5.30
2018-09-11T22:21:25.961Z,7.57
2018-09-11T22:23:54.352Z,8.20
2018-09-11T22:26:23.052Z,6.70
2018-09-11T22:28:51.454Z,7.43
2018-09-11T22:31:19.913Z,6.10
2018-09-11T22:33:48.437Z,4.90
2018-09-11T22:36:16.859Z,5.33
2018-09-11T22:38:45.275Z,6.67
2018-09-11T22:41:13.650Z,7.50
2018-09-11T22:43:42.089Z,8.03
2018-09-11T22:46:10.484Z,4.63
2018-09-11T22:48:38.945Z,4.57
2018-09-11T22:51:07.623Z,5.07
2018-09-11T22:53:36.268Z,5.97
2018-09-11T22:56:04.647Z,7.27
2018-09-11T22:58:33.081Z,6.10
2018-09-11T23:01:01.494Z,5.47
2018-09-11T23:03:29.887Z,7.20
2018-09-11T23:05:58.359Z,6.07
2018-09-11T23:08:26.803Z,6.77
2018-09-11T23:10:55.231Z,5.90
2018-09-11T23:13:23.716Z,7.23
2018-09-11T23:15:52.167Z,6.43
2018-09-11T23:18:20.623Z,5.13
2018-09-11T23:20:49.102Z,6.43
2018-09-11T23:23:17.579Z,7.40
2018-09-11T23:25:46.005Z,5.40
2018-09-11T23:28:14.469Z,5.13
2018-09-11T23:30:42.983Z,5.70
2018-09-11T23:33:11.369Z,5.97
2018-09-11T23:35:39.765Z,6.30
2018-09-11T23:38:08.163Z,7.13
2018-09-11T23:40:36.520Z,6.90
2018-09-11T23:43:05.543Z,7.90
2018-09-11T23:45:34.017Z,5.00
2018-09-11T23:48:02.527Z,5.23
2018-09-11T23:50:30.931Z,7.10
2018-09-11T23:52:59.410Z,6.57
2018-09-11T23:55:27.876Z,4.27
2018-09-11T23:57:56.268Z,5.70
